sensor_id;sensor_type;location;lat;lon;timestamp;temperature;humidity
39045;DHT22;52192;52.002;5.956;2023-07-29T00:01:33;20.60;79.30
39045;DHT22;52192;52.002;5.956;2023-07-29T00:03:59;20.60;79.40
39045;DHT22;52192;52.002;5.956;2023-07-29T00:06:24;20.60;79.40
39045;DHT22;52192;52.002;5.956;2023-07-29T00:08:50;20.60;79.40
39045;DHT22;52192;52.002;5.956;2023-07-29T00:11:16;20.50;79.40
39045;DHT22;52192;52.002;5.956;2023-07-29T00:13:41;20.50;79.40
39045;DHT22;52192;52.002;5.956;2023-07-29T00:16:07;20.40;79.40
39045;DHT22;52192;52.002;5.956;2023-07-29T00:18:33;20.40;79.40
39045;DHT22;52192;52.002;5.956;2023-07-29T00:20:58;20.40;79.50
39045;DHT22;52192;52.002;5.956;2023-07-29T00:23:24;20.40;79.60
39045;DHT22;52192;52.002;5.956;2023-07-29T00:25:50;20.40;79.60
39045;DHT22;52192;52.002;5.956;2023-07-29T00:28:16;20.30;79.70
39045;DHT22;52192;52.002;5.956;2023-07-29T00:30:41;20.30;79.50
39045;DHT22;52192;52.002;5.956;2023-07-29T00:33:07;20.30;79.50
39045;DHT22;52192;52.002;5.956;2023-07-29T00:35:34;20.30;79.40
39045;DHT22;52192;52.002;5.956;2023-07-29T00:37:59;20.30;79.40
39045;DHT22;52192;52.002;5.956;2023-07-29T00:40:28;20.30;79.40
39045;DHT22;52192;52.002;5.956;2023-07-29T00:42:54;20.20;79.30
39045;DHT22;52192;52.002;5.956;2023-07-29T00:45:20;20.20;79.40
39045;DHT22;52192;52.002;5.956;2023-07-29T00:47:46;20.20;79.50
39045;DHT22;52192;52.002;5.956;2023-07-29T00:50:14;20.20;79.50
39045;DHT22;52192;52.002;5.956;2023-07-29T00:52:40;20.20;79.40
39045;DHT22;52192;52.002;5.956;2023-07-29T00:55:07;20.10;79.40
39045;DHT22;52192;52.002;5.956;2023-07-29T00:57:33;20.10;79.30
39045;DHT22;52192;52.002;5.956;2023-07-29T00:59:59;20.10;79.30
39045;DHT22;52192;52.002;5.956;2023-07-29T01:02:26;20.10;79.30
39045;DHT22;52192;52.002;5.956;2023-07-29T01:04:54;20.10;79.30
39045;DHT22;52192;52.002;5.956;2023-07-29T01:07:29;20.10;79.20
39045;DHT22;52192;52.002;5.956;2023-07-29T01:10:53;20.00;79.30
39045;DHT22;52192;52.002;5.956;2023-07-29T01:15:46;20.00;79.40
39045;DHT22;52192;52.002;5.956;2023-07-29T01:18:31;20.00;79.40
39045;DHT22;52192;52.002;5.956;2023-07-29T01:20:59;20.10;79.50
39045;DHT22;52192;52.002;5.956;2023-07-29T01:23:32;20.10;79.70
39045;DHT22;52192;52.002;5.956;2023-07-29T01:25:57;20.10;79.80
39045;DHT22;52192;52.002;5.956;2023-07-29T01:28:24;20.10;79.70
39045;DHT22;52192;52.002;5.956;2023-07-29T01:30:52;20.20;79.80
39045;DHT22;52192;52.002;5.956;2023-07-29T01:33:28;20.20;79.90
39045;DHT22;52192;52.002;5.956;2023-07-29T01:36:01;20.20;80.00
39045;DHT22;52192;52.002;5.956;2023-07-29T01:38:36;20.20;80.00
39045;DHT22;52192;52.002;5.956;2023-07-29T01:41:06;20.20;80.00
39045;DHT22;52192;52.002;5.956;2023-07-29T01:43:33;20.20;80.10
39045;DHT22;52192;52.002;5.956;2023-07-29T01:46:00;20.20;80.10
39045;DHT22;52192;52.002;5.956;2023-07-29T01:48:26;20.20;80.10
39045;DHT22;52192;52.002;5.956;2023-07-29T01:50:54;20.20;80.30
39045;DHT22;52192;52.002;5.956;2023-07-29T01:53:19;20.20;80.30
39045;DHT22;52192;52.002;5.956;2023-07-29T01:55:45;20.20;80.40
39045;DHT22;52192;52.002;5.956;2023-07-29T01:58:11;20.10;80.50
39045;DHT22;52192;52.002;5.956;2023-07-29T02:00:37;20.20;80.50
39045;DHT22;52192;52.002;5.956;2023-07-29T02:03:03;20.20;80.60
39045;DHT22;52192;52.002;5.956;2023-07-29T02:05:28;20.20;80.70
39045;DHT22;52192;52.002;5.956;2023-07-29T02:07:54;20.30;80.70
39045;DHT22;52192;52.002;5.956;2023-07-29T02:10:20;20.30;80.70
39045;DHT22;52192;52.002;5.956;2023-07-29T02:12:45;20.30;80.70
39045;DHT22;52192;52.002;5.956;2023-07-29T02:15:11;20.30;80.70
39045;DHT22;52192;52.002;5.956;2023-07-29T02:17:37;20.30;80.80
39045;DHT22;52192;52.002;5.956;2023-07-29T02:20:03;20.30;80.90
39045;DHT22;52192;52.002;5.956;2023-07-29T02:22:29;20.30;81.00
39045;DHT22;52192;52.002;5.956;2023-07-29T02:24:55;20.30;81.10
39045;DHT22;52192;52.002;5.956;2023-07-29T02:27:21;20.30;81.00
39045;DHT22;52192;52.002;5.956;2023-07-29T02:29:47;20.30;81.10
39045;DHT22;52192;52.002;5.956;2023-07-29T02:32:12;20.30;81.10
39045;DHT22;52192;52.002;5.956;2023-07-29T02:34:38;20.30;81.20
39045;DHT22;52192;52.002;5.956;2023-07-29T02:37:04;20.40;81.20
39045;DHT22;52192;52.002;5.956;2023-07-29T02:39:30;20.40;81.20
39045;DHT22;52192;52.002;5.956;2023-07-29T02:41:56;20.40;81.20
39045;DHT22;52192;52.002;5.956;2023-07-29T02:44:23;20.40;81.10
39045;DHT22;52192;52.002;5.956;2023-07-29T02:46:49;20.50;81.10
39045;DHT22;52192;52.002;5.956;2023-07-29T02:49:15;20.50;81.20
39045;DHT22;52192;52.002;5.956;2023-07-29T02:51:40;20.50;81.20
39045;DHT22;52192;52.002;5.956;2023-07-29T02:54:06;20.50;81.20
39045;DHT22;52192;52.002;5.956;2023-07-29T02:56:32;20.50;81.30
39045;DHT22;52192;52.002;5.956;2023-07-29T02:58:57;20.50;81.40
39045;DHT22;52192;52.002;5.956;2023-07-29T03:01:23;20.40;81.80
39045;DHT22;52192;52.002;5.956;2023-07-29T03:03:50;20.40;82.00
39045;DHT22;52192;52.002;5.956;2023-07-29T03:06:16;20.40;82.20
39045;DHT22;52192;52.002;5.956;2023-07-29T03:08:42;20.40;82.20
39045;DHT22;52192;52.002;5.956;2023-07-29T03:11:10;20.50;82.30
39045;DHT22;52192;52.002;5.956;2023-07-29T03:13:36;20.50;82.20
39045;DHT22;52192;52.002;5.956;2023-07-29T03:18:31;20.50;82.10
39045;DHT22;52192;52.002;5.956;2023-07-29T03:20:56;20.50;82.70
39045;DHT22;52192;52.002;5.956;2023-07-29T03:23:22;20.50;82.20
39045;DHT22;52192;52.002;5.956;2023-07-29T03:25:49;20.50;82.10
39045;DHT22;52192;52.002;5.956;2023-07-29T03:28:16;20.50;82.10
39045;DHT22;52192;52.002;5.956;2023-07-29T03:30:42;20.60;82.30
39045;DHT22;52192;52.002;5.956;2023-07-29T03:33:08;20.50;82.30
39045;DHT22;52192;52.002;5.956;2023-07-29T03:35:33;20.50;82.30
39045;DHT22;52192;52.002;5.956;2023-07-29T03:37:59;20.50;82.30
39045;DHT22;52192;52.002;5.956;2023-07-29T03:40:24;20.50;82.40
39045;DHT22;52192;52.002;5.956;2023-07-29T03:42:50;20.50;82.30
39045;DHT22;52192;52.002;5.956;2023-07-29T03:45:16;20.50;82.30
39045;DHT22;52192;52.002;5.956;2023-07-29T03:47:42;20.50;82.20
39045;DHT22;52192;52.002;5.956;2023-07-29T03:50:08;20.50;82.20
39045;DHT22;52192;52.002;5.956;2023-07-29T03:52:34;20.50;82.30
39045;DHT22;52192;52.002;5.956;2023-07-29T03:54:59;20.40;82.20
39045;DHT22;52192;52.002;5.956;2023-07-29T03:57:25;20.40;82.30
39045;DHT22;52192;52.002;5.956;2023-07-29T03:59:50;20.40;82.30
39045;DHT22;52192;52.002;5.956;2023-07-29T04:02:16;20.40;82.40
39045;DHT22;52192;52.002;5.956;2023-07-29T04:04:42;20.30;82.30
39045;DHT22;52192;52.002;5.956;2023-07-29T04:07:09;20.30;82.30
39045;DHT22;52192;52.002;5.956;2023-07-29T04:09:35;20.30;82.20
39045;DHT22;52192;52.002;5.956;2023-07-29T04:12:01;20.30;82.10
39045;DHT22;52192;52.002;5.956;2023-07-29T04:14:27;20.30;82.00
39045;DHT22;52192;52.002;5.956;2023-07-29T04:16:52;20.30;82.10
39045;DHT22;52192;52.002;5.956;2023-07-29T04:19:18;20.30;82.00
39045;DHT22;52192;52.002;5.956;2023-07-29T04:21:44;20.30;82.00
39045;DHT22;52192;52.002;5.956;2023-07-29T04:24:09;20.30;82.00
39045;DHT22;52192;52.002;5.956;2023-07-29T04:26:35;20.20;81.90
39045;DHT22;52192;52.002;5.956;2023-07-29T04:29:00;20.20;82.00
39045;DHT22;52192;52.002;5.956;2023-07-29T04:31:26;20.20;81.90
39045;DHT22;52192;52.002;5.956;2023-07-29T04:33:55;20.20;81.80
39045;DHT22;52192;52.002;5.956;2023-07-29T04:36:20;20.20;81.80
39045;DHT22;52192;52.002;5.956;2023-07-29T04:38:46;20.10;81.70
39045;DHT22;52192;52.002;5.956;2023-07-29T04:41:12;20.10;81.70
39045;DHT22;52192;52.002;5.956;2023-07-29T04:43:37;20.10;81.70
39045;DHT22;52192;52.002;5.956;2023-07-29T04:46:06;20.10;81.60
39045;DHT22;52192;52.002;5.956;2023-07-29T04:48:33;20.10;81.60
39045;DHT22;52192;52.002;5.956;2023-07-29T04:50:58;20.10;81.50
39045;DHT22;52192;52.002;5.956;2023-07-29T04:53:24;20.10;81.50
39045;DHT22;52192;52.002;5.956;2023-07-29T04:55:50;20.10;81.40
39045;DHT22;52192;52.002;5.956;2023-07-29T04:58:15;20.10;81.30
39045;DHT22;52192;52.002;5.956;2023-07-29T05:00:41;20.10;81.30
39045;DHT22;52192;52.002;5.956;2023-07-29T05:03:07;20.10;81.30
39045;DHT22;52192;52.002;5.956;2023-07-29T05:05:32;20.10;81.30
39045;DHT22;52192;52.002;5.956;2023-07-29T05:07:58;20.10;81.30
39045;DHT22;52192;52.002;5.956;2023-07-29T05:10:24;20.10;81.20
39045;DHT22;52192;52.002;5.956;2023-07-29T05:12:50;20.00;81.10
39045;DHT22;52192;52.002;5.956;2023-07-29T05:15:15;20.10;81.20
39045;DHT22;52192;52.002;5.956;2023-07-29T05:17:41;20.10;81.10
39045;DHT22;52192;52.002;5.956;2023-07-29T05:20:07;20.10;80.90
39045;DHT22;52192;52.002;5.956;2023-07-29T05:22:33;20.10;80.70
39045;DHT22;52192;52.002;5.956;2023-07-29T05:24:59;20.10;80.50
39045;DHT22;52192;52.002;5.956;2023-07-29T05:27:24;20.10;80.50
39045;DHT22;52192;52.002;5.956;2023-07-29T05:29:50;20.00;80.30
39045;DHT22;52192;52.002;5.956;2023-07-29T05:32:16;20.00;80.20
39045;DHT22;52192;52.002;5.956;2023-07-29T05:34:41;20.00;80.20
39045;DHT22;52192;52.002;5.956;2023-07-29T05:37:07;20.10;80.20
39045;DHT22;52192;52.002;5.956;2023-07-29T05:39:33;20.10;80.00
39045;DHT22;52192;52.002;5.956;2023-07-29T05:41:59;20.10;79.30
39045;DHT22;52192;52.002;5.956;2023-07-29T05:44:28;20.00;79.10
39045;DHT22;52192;52.002;5.956;2023-07-29T05:46:53;20.00;80.00
39045;DHT22;52192;52.002;5.956;2023-07-29T05:49:19;20.00;79.30
39045;DHT22;52192;52.002;5.956;2023-07-29T05:51:45;20.00;79.10
39045;DHT22;52192;52.002;5.956;2023-07-29T05:54:10;20.00;79.10
39045;DHT22;52192;52.002;5.956;2023-07-29T05:56:36;20.00;79.20
39045;DHT22;52192;52.002;5.956;2023-07-29T05:59:01;20.00;79.20
39045;DHT22;52192;52.002;5.956;2023-07-29T06:01:27;20.00;79.10
39045;DHT22;52192;52.002;5.956;2023-07-29T06:03:53;20.10;79.00
39045;DHT22;52192;52.002;5.956;2023-07-29T06:06:18;20.10;79.00
39045;DHT22;52192;52.002;5.956;2023-07-29T06:08:44;20.10;79.00
39045;DHT22;52192;52.002;5.956;2023-07-29T06:11:10;20.10;78.70
39045;DHT22;52192;52.002;5.956;2023-07-29T06:13:35;20.00;78.60
39045;DHT22;52192;52.002;5.956;2023-07-29T06:16:01;20.10;78.70
39045;DHT22;52192;52.002;5.956;2023-07-29T06:18:26;20.10;78.60
39045;DHT22;52192;52.002;5.956;2023-07-29T06:20:52;20.20;78.40
39045;DHT22;52192;52.002;5.956;2023-07-29T06:23:18;20.20;78.40
39045;DHT22;52192;52.002;5.956;2023-07-29T06:25:43;20.20;78.30
39045;DHT22;52192;52.002;5.956;2023-07-29T06:28:09;20.20;78.20
39045;DHT22;52192;52.002;5.956;2023-07-29T06:30:35;20.30;78.20
39045;DHT22;52192;52.002;5.956;2023-07-29T06:33:01;20.30;78.00
39045;DHT22;52192;52.002;5.956;2023-07-29T06:35:29;20.40;77.60
39045;DHT22;52192;52.002;5.956;2023-07-29T06:37:54;20.30;77.60
39045;DHT22;52192;52.002;5.956;2023-07-29T06:40:20;20.40;77.70
39045;DHT22;52192;52.002;5.956;2023-07-29T06:42:46;20.50;77.70
39045;DHT22;52192;52.002;5.956;2023-07-29T06:45:12;20.60;77.30
39045;DHT22;52192;52.002;5.956;2023-07-29T06:47:38;20.70;77.20
39045;DHT22;52192;52.002;5.956;2023-07-29T06:50:04;20.80;76.90
39045;DHT22;52192;52.002;5.956;2023-07-29T06:52:29;20.80;76.70
39045;DHT22;52192;52.002;5.956;2023-07-29T06:54:55;20.80;76.70
39045;DHT22;52192;52.002;5.956;2023-07-29T06:57:21;20.80;76.90
39045;DHT22;52192;52.002;5.956;2023-07-29T06:59:46;20.90;76.80
39045;DHT22;52192;52.002;5.956;2023-07-29T07:02:12;21.10;76.80
39045;DHT22;52192;52.002;5.956;2023-07-29T07:04:38;21.30;76.50
39045;DHT22;52192;52.002;5.956;2023-07-29T07:07:03;21.40;76.20
39045;DHT22;52192;52.002;5.956;2023-07-29T07:09:29;21.40;76.70
39045;DHT22;52192;52.002;5.956;2023-07-29T07:11:55;21.40;76.10
39045;DHT22;52192;52.002;5.956;2023-07-29T07:14:20;21.40;75.50
39045;DHT22;52192;52.002;5.956;2023-07-29T07:16:46;21.30;75.80
39045;DHT22;52192;52.002;5.956;2023-07-29T07:19:12;21.30;75.80
39045;DHT22;52192;52.002;5.956;2023-07-29T07:21:37;21.30;75.90
39045;DHT22;52192;52.002;5.956;2023-07-29T07:24:03;21.40;76.00
39045;DHT22;52192;52.002;5.956;2023-07-29T07:26:29;21.50;75.70
39045;DHT22;52192;52.002;5.956;2023-07-29T07:28:54;21.60;75.50
39045;DHT22;52192;52.002;5.956;2023-07-29T07:31:20;21.60;75.50
39045;DHT22;52192;52.002;5.956;2023-07-29T07:33:45;21.60;75.50
39045;DHT22;52192;52.002;5.956;2023-07-29T07:36:11;21.70;75.30
39045;DHT22;52192;52.002;5.956;2023-07-29T07:38:37;21.60;75.30
39045;DHT22;52192;52.002;5.956;2023-07-29T07:41:02;21.50;75.20
39045;DHT22;52192;52.002;5.956;2023-07-29T07:43:28;21.40;75.50
39045;DHT22;52192;52.002;5.956;2023-07-29T07:45:58;21.40;75.40
39045;DHT22;52192;52.002;5.956;2023-07-29T07:48:25;21.40;75.70
39045;DHT22;52192;52.002;5.956;2023-07-29T07:50:51;21.40;75.70
39045;DHT22;52192;52.002;5.956;2023-07-29T07:53:16;21.50;75.50
39045;DHT22;52192;52.002;5.956;2023-07-29T07:55:42;21.50;75.30
39045;DHT22;52192;52.002;5.956;2023-07-29T07:58:08;21.40;75.50
39045;DHT22;52192;52.002;5.956;2023-07-29T08:00:33;21.40;75.50
39045;DHT22;52192;52.002;5.956;2023-07-29T08:02:59;21.30;75.80
39045;DHT22;52192;52.002;5.956;2023-07-29T08:05:25;21.30;76.10
39045;DHT22;52192;52.002;5.956;2023-07-29T08:07:50;21.40;76.20
39045;DHT22;52192;52.002;5.956;2023-07-29T08:10:16;21.50;76.00
39045;DHT22;52192;52.002;5.956;2023-07-29T08:12:42;21.60;75.30
39045;DHT22;52192;52.002;5.956;2023-07-29T08:15:08;21.50;75.40
39045;DHT22;52192;52.002;5.956;2023-07-29T08:17:33;21.40;75.60
39045;DHT22;52192;52.002;5.956;2023-07-29T08:19:59;21.40;75.90
39045;DHT22;52192;52.002;5.956;2023-07-29T08:22:25;21.30;76.10
39045;DHT22;52192;52.002;5.956;2023-07-29T08:24:50;21.30;76.20
39045;DHT22;52192;52.002;5.956;2023-07-29T08:27:16;21.40;76.30
39045;DHT22;52192;52.002;5.956;2023-07-29T08:29:41;21.50;76.20
39045;DHT22;52192;52.002;5.956;2023-07-29T08:32:07;21.50;76.10
39045;DHT22;52192;52.002;5.956;2023-07-29T08:34:33;21.50;75.90
39045;DHT22;52192;52.002;5.956;2023-07-29T08:36:59;21.60;76.00
39045;DHT22;52192;52.002;5.956;2023-07-29T08:39:25;21.60;76.00
39045;DHT22;52192;52.002;5.956;2023-07-29T08:42:07;21.60;75.90
39045;DHT22;52192;52.002;5.956;2023-07-29T08:44:43;21.60;76.00
39045;DHT22;52192;52.002;5.956;2023-07-29T08:47:11;21.60;75.80
39045;DHT22;52192;52.002;5.956;2023-07-29T08:49:38;21.60;76.00
39045;DHT22;52192;52.002;5.956;2023-07-29T08:52:05;21.50;76.10
39045;DHT22;52192;52.002;5.956;2023-07-29T08:54:32;21.50;76.10
39045;DHT22;52192;52.002;5.956;2023-07-29T08:56:58;21.50;76.10
39045;DHT22;52192;52.002;5.956;2023-07-29T08:59:24;21.50;75.90
39045;DHT22;52192;52.002;5.956;2023-07-29T09:01:51;21.70;76.00
39045;DHT22;52192;52.002;5.956;2023-07-29T09:04:20;21.90;75.80
39045;DHT22;52192;52.002;5.956;2023-07-29T09:06:47;22.10;75.30
39045;DHT22;52192;52.002;5.956;2023-07-29T09:09:13;22.30;74.50
39045;DHT22;52192;52.002;5.956;2023-07-29T09:11:39;22.30;73.90
39045;DHT22;52192;52.002;5.956;2023-07-29T09:14:04;22.20;73.90
39045;DHT22;52192;52.002;5.956;2023-07-29T09:16:30;22.20;74.00
39045;DHT22;52192;52.002;5.956;2023-07-29T09:19:01;22.20;74.20
39045;DHT22;52192;52.002;5.956;2023-07-29T09:21:27;22.20;73.80
39045;DHT22;52192;52.002;5.956;2023-07-29T09:23:54;22.20;73.90
39045;DHT22;52192;52.002;5.956;2023-07-29T09:26:24;22.20;73.90
39045;DHT22;52192;52.002;5.956;2023-07-29T09:28:55;22.20;74.00
39045;DHT22;52192;52.002;5.956;2023-07-29T09:31:22;22.20;74.00
39045;DHT22;52192;52.002;5.956;2023-07-29T09:33:48;22.20;74.00
39045;DHT22;52192;52.002;5.956;2023-07-29T09:36:15;22.30;73.90
39045;DHT22;52192;52.002;5.956;2023-07-29T09:38:40;22.30;72.70
39045;DHT22;52192;52.002;5.956;2023-07-29T09:41:07;22.40;73.00
39045;DHT22;52192;52.002;5.956;2023-07-29T09:43:34;22.40;72.40
39045;DHT22;52192;52.002;5.956;2023-07-29T09:46:04;22.50;72.50
39045;DHT22;52192;52.002;5.956;2023-07-29T09:48:37;22.60;72.50
39045;DHT22;52192;52.002;5.956;2023-07-29T09:51:11;22.90;71.80
39045;DHT22;52192;52.002;5.956;2023-07-29T09:53:46;22.90;70.60
39045;DHT22;52192;52.002;5.956;2023-07-29T09:56:12;23.00;71.00
39045;DHT22;52192;52.002;5.956;2023-07-29T09:58:39;23.10;69.70
39045;DHT22;52192;52.002;5.956;2023-07-29T10:01:06;23.30;70.00
39045;DHT22;52192;52.002;5.956;2023-07-29T10:03:32;23.40;69.70
39045;DHT22;52192;52.002;5.956;2023-07-29T10:06:03;23.60;69.40
39045;DHT22;52192;52.002;5.956;2023-07-29T10:08:32;23.80;68.70
39045;DHT22;52192;52.002;5.956;2023-07-29T10:11:01;24.00;69.10
39045;DHT22;52192;52.002;5.956;2023-07-29T10:13:28;24.10;68.20
39045;DHT22;52192;52.002;5.956;2023-07-29T10:15:54;24.10;68.30
39045;DHT22;52192;52.002;5.956;2023-07-29T10:18:23;24.10;68.50
39045;DHT22;52192;52.002;5.956;2023-07-29T10:20:51;24.20;68.90
39045;DHT22;52192;52.002;5.956;2023-07-29T10:23:18;24.50;68.30
39045;DHT22;52192;52.002;5.956;2023-07-29T10:25:47;24.60;67.60
39045;DHT22;52192;52.002;5.956;2023-07-29T10:28:15;24.80;67.90
39045;DHT22;52192;52.002;5.956;2023-07-29T10:30:44;25.10;67.40
39045;DHT22;52192;52.002;5.956;2023-07-29T10:33:10;25.10;66.20
39045;DHT22;52192;52.002;5.956;2023-07-29T10:35:36;25.00;66.40
39045;DHT22;52192;52.002;5.956;2023-07-29T10:38:03;25.00;66.30
39045;DHT22;52192;52.002;5.956;2023-07-29T10:43:34;25.30;64.80
39045;DHT22;52192;52.002;5.956;2023-07-29T10:46:16;25.20;64.90
39045;DHT22;52192;52.002;5.956;2023-07-29T10:48:54;25.10;64.80
39045;DHT22;52192;52.002;5.956;2023-07-29T10:51:37;24.90;65.30
39045;DHT22;52192;52.002;5.956;2023-07-29T10:54:13;24.90;65.50
39045;DHT22;52192;52.002;5.956;2023-07-29T10:56:43;25.00;65.80
39045;DHT22;52192;52.002;5.956;2023-07-29T11:01:39;24.90;66.00
39045;DHT22;52192;52.002;5.956;2023-07-29T11:17:57;24.50;65.60
39045;DHT22;52192;52.002;5.956;2023-07-29T11:20:27;24.60;66.20
39045;DHT22;52192;52.002;5.956;2023-07-29T11:22:55;24.60;65.80
39045;DHT22;52192;52.002;5.956;2023-07-29T11:25:22;24.60;66.20
39045;DHT22;52192;52.002;5.956;2023-07-29T11:27:50;24.50;66.10
39045;DHT22;52192;52.002;5.956;2023-07-29T11:30:16;24.40;66.50
39045;DHT22;52192;52.002;5.956;2023-07-29T11:32:44;24.30;67.00
39045;DHT22;52192;52.002;5.956;2023-07-29T11:35:15;24.20;67.00
39045;DHT22;52192;52.002;5.956;2023-07-29T11:37:44;24.10;67.40
39045;DHT22;52192;52.002;5.956;2023-07-29T11:40:17;24.00;67.80
39045;DHT22;52192;52.002;5.956;2023-07-29T11:42:43;23.90;68.10
39045;DHT22;52192;52.002;5.956;2023-07-29T11:45:10;23.90;68.30
39045;DHT22;52192;52.002;5.956;2023-07-29T11:47:36;23.80;68.30
39045;DHT22;52192;52.002;5.956;2023-07-29T11:50:07;23.70;68.30
39045;DHT22;52192;52.002;5.956;2023-07-29T11:52:35;23.70;68.50
39045;DHT22;52192;52.002;5.956;2023-07-29T11:55:02;23.60;68.80
39045;DHT22;52192;52.002;5.956;2023-07-29T11:57:38;23.50;68.90
39045;DHT22;52192;52.002;5.956;2023-07-29T12:00:06;23.40;68.90
39045;DHT22;52192;52.002;5.956;2023-07-29T12:02:33;23.30;69.20
39045;DHT22;52192;52.002;5.956;2023-07-29T12:05:00;23.30;69.70
39045;DHT22;52192;52.002;5.956;2023-07-29T12:07:27;23.10;70.30
39045;DHT22;52192;52.002;5.956;2023-07-29T12:09:53;23.00;70.90
39045;DHT22;52192;52.002;5.956;2023-07-29T12:12:22;22.90;71.80
39045;DHT22;52192;52.002;5.956;2023-07-29T12:14:48;22.70;72.40
39045;DHT22;52192;52.002;5.956;2023-07-29T12:17:14;22.50;72.70
39045;DHT22;52192;52.002;5.956;2023-07-29T12:19:41;22.40;73.30
39045;DHT22;52192;52.002;5.956;2023-07-29T12:22:08;22.20;73.90
39045;DHT22;52192;52.002;5.956;2023-07-29T12:24:40;22.00;74.40
39045;DHT22;52192;52.002;5.956;2023-07-29T12:27:11;21.90;74.90
39045;DHT22;52192;52.002;5.956;2023-07-29T12:29:44;21.90;75.10
39045;DHT22;52192;52.002;5.956;2023-07-29T12:32:11;22.00;75.50
39045;DHT22;52192;52.002;5.956;2023-07-29T12:34:39;21.90;76.30
39045;DHT22;52192;52.002;5.956;2023-07-29T12:37:05;21.90;76.80
39045;DHT22;52192;52.002;5.956;2023-07-29T12:39:34;21.80;77.00
39045;DHT22;52192;52.002;5.956;2023-07-29T12:42:01;21.90;77.30
39045;DHT22;52192;52.002;5.956;2023-07-29T12:44:34;22.00;77.30
39045;DHT22;52192;52.002;5.956;2023-07-29T12:47:04;22.10;77.00
39045;DHT22;52192;52.002;5.956;2023-07-29T12:49:30;22.20;77.00
39045;DHT22;52192;52.002;5.956;2023-07-29T12:51:57;22.30;77.00
39045;DHT22;52192;52.002;5.956;2023-07-29T12:54:23;22.60;76.50
39045;DHT22;52192;52.002;5.956;2023-07-29T12:56:49;22.80;76.10
39045;DHT22;52192;52.002;5.956;2023-07-29T12:59:14;23.00;75.70
39045;DHT22;52192;52.002;5.956;2023-07-29T13:01:40;23.10;75.60
39045;DHT22;52192;52.002;5.956;2023-07-29T13:04:06;23.20;75.50
39045;DHT22;52192;52.002;5.956;2023-07-29T13:06:32;23.30;75.10
39045;DHT22;52192;52.002;5.956;2023-07-29T13:08:57;23.40;75.10
39045;DHT22;52192;52.002;5.956;2023-07-29T13:11:23;23.40;74.70
39045;DHT22;52192;52.002;5.956;2023-07-29T13:13:49;23.50;74.80
39045;DHT22;52192;52.002;5.956;2023-07-29T13:16:15;23.60;74.20
39045;DHT22;52192;52.002;5.956;2023-07-29T13:18:41;23.80;73.80
39045;DHT22;52192;52.002;5.956;2023-07-29T13:21:08;23.90;73.40
39045;DHT22;52192;52.002;5.956;2023-07-29T13:23:34;24.00;72.60
39045;DHT22;52192;52.002;5.956;2023-07-29T13:26:00;24.00;72.40
39045;DHT22;52192;52.002;5.956;2023-07-29T13:28:25;24.00;72.70
39045;DHT22;52192;52.002;5.956;2023-07-29T13:30:51;24.10;72.70
39045;DHT22;52192;52.002;5.956;2023-07-29T13:33:17;24.20;72.30
39045;DHT22;52192;52.002;5.956;2023-07-29T13:35:42;24.10;71.90
39045;DHT22;52192;52.002;5.956;2023-07-29T13:38:08;24.00;72.00
39045;DHT22;52192;52.002;5.956;2023-07-29T13:40:34;23.90;72.40
39045;DHT22;52192;52.002;5.956;2023-07-29T13:43:00;23.80;72.40
39045;DHT22;52192;52.002;5.956;2023-07-29T13:45:26;23.80;72.50
39045;DHT22;52192;52.002;5.956;2023-07-29T13:47:51;23.90;72.90
39045;DHT22;52192;52.002;5.956;2023-07-29T13:50:17;23.80;72.60
39045;DHT22;52192;52.002;5.956;2023-07-29T13:52:44;23.90;72.60
39045;DHT22;52192;52.002;5.956;2023-07-29T13:55:10;23.90;72.30
39045;DHT22;52192;52.002;5.956;2023-07-29T13:57:37;23.90;72.60
39045;DHT22;52192;52.002;5.956;2023-07-29T14:00:04;23.90;72.10
39045;DHT22;52192;52.002;5.956;2023-07-29T14:02:30;23.90;72.30
39045;DHT22;52192;52.002;5.956;2023-07-29T14:04:56;24.00;72.40
39045;DHT22;52192;52.002;5.956;2023-07-29T14:07:22;24.10;72.20
39045;DHT22;52192;52.002;5.956;2023-07-29T14:09:48;24.30;71.90
39045;DHT22;52192;52.002;5.956;2023-07-29T14:12:14;24.50;71.80
39045;DHT22;52192;52.002;5.956;2023-07-29T14:14:41;24.60;71.10
39045;DHT22;52192;52.002;5.956;2023-07-29T14:17:07;24.70;69.90
39045;DHT22;52192;52.002;5.956;2023-07-29T14:19:37;24.80;69.30
39045;DHT22;52192;52.002;5.956;2023-07-29T14:22:03;24.70;69.30
39045;DHT22;52192;52.002;5.956;2023-07-29T14:24:29;24.70;69.90
39045;DHT22;52192;52.002;5.956;2023-07-29T14:26:54;24.60;69.80
39045;DHT22;52192;52.002;5.956;2023-07-29T14:29:20;24.60;70.30
39045;DHT22;52192;52.002;5.956;2023-07-29T14:31:45;24.70;70.60
39045;DHT22;52192;52.002;5.956;2023-07-29T14:34:11;25.00;69.80
39045;DHT22;52192;52.002;5.956;2023-07-29T14:36:37;25.00;68.70
39045;DHT22;52192;52.002;5.956;2023-07-29T14:39:03;25.10;69.00
39045;DHT22;52192;52.002;5.956;2023-07-29T14:41:29;25.30;68.70
39045;DHT22;52192;52.002;5.956;2023-07-29T14:43:55;25.60;68.50
39045;DHT22;52192;52.002;5.956;2023-07-29T14:46:21;25.70;68.70
39045;DHT22;52192;52.002;5.956;2023-07-29T14:48:46;25.60;67.80
39045;DHT22;52192;52.002;5.956;2023-07-29T14:51:12;25.30;68.20
39045;DHT22;52192;52.002;5.956;2023-07-29T14:53:38;25.40;68.80
39045;DHT22;52192;52.002;5.956;2023-07-29T14:56:04;25.60;68.10
39045;DHT22;52192;52.002;5.956;2023-07-29T14:58:30;25.90;67.60
39045;DHT22;52192;52.002;5.956;2023-07-29T15:00:56;26.20;67.00
39045;DHT22;52192;52.002;5.956;2023-07-29T15:03:21;26.40;66.40
39045;DHT22;52192;52.002;5.956;2023-07-29T15:05:47;26.50;65.50
39045;DHT22;52192;52.002;5.956;2023-07-29T15:08:13;26.20;65.40
39045;DHT22;52192;52.002;5.956;2023-07-29T15:10:39;26.00;65.80
39045;DHT22;52192;52.002;5.956;2023-07-29T15:13:04;25.80;66.20
39045;DHT22;52192;52.002;5.956;2023-07-29T15:15:30;25.60;66.00
39045;DHT22;52192;52.002;5.956;2023-07-29T15:17:56;25.50;66.80
39045;DHT22;52192;52.002;5.956;2023-07-29T15:20:22;25.50;67.00
39045;DHT22;52192;52.002;5.956;2023-07-29T15:22:48;25.30;67.30
39045;DHT22;52192;52.002;5.956;2023-07-29T15:25:14;25.30;67.70
39045;DHT22;52192;52.002;5.956;2023-07-29T15:27:39;25.20;67.80
39045;DHT22;52192;52.002;5.956;2023-07-29T15:30:06;25.10;67.80
39045;DHT22;52192;52.002;5.956;2023-07-29T15:32:32;25.10;68.00
39045;DHT22;52192;52.002;5.956;2023-07-29T15:34:58;25.20;68.20
39045;DHT22;52192;52.002;5.956;2023-07-29T15:37:27;25.20;68.00
39045;DHT22;52192;52.002;5.956;2023-07-29T15:39:52;25.30;66.40
39045;DHT22;52192;52.002;5.956;2023-07-29T15:42:19;25.30;66.00
39045;DHT22;52192;52.002;5.956;2023-07-29T15:44:44;25.30;66.50
39045;DHT22;52192;52.002;5.956;2023-07-29T15:47:10;25.20;66.30
39045;DHT22;52192;52.002;5.956;2023-07-29T15:49:38;25.30;66.60
39045;DHT22;52192;52.002;5.956;2023-07-29T15:52:04;25.50;65.70